CheckWX is a tool to help pilots better visualize weather data.  It is not intended as a substitute for an official pre-flight weather briefing.

17:05:01 UTC

KIDI METAR
Indiana County / Jimmy Stewart Field / Airport
Indiana, Pennsylvania, USA
Current

10 mins ago

KIDI 171655Z AUTO 13010G16KT 10SM CLR 05/M03 A3016 RMK A01
Observed
Nov-17 @ 16:55 UTC
Wind
  • 130° at 10 KTS
  • Gusting to 16 KTS
Visibility
10 SM
Flight Rules
VFR
Cloud Levels
  • Clear skies
Temperature
C / 41°F
Dewpoint
-3°C / 27°F
Humidity
57%
Altimeter
30.16" Hg
Pressure
1021.32 hPa
Previous

30 mins ago

KIDI 171635Z AUTO 13009KT 090V160 10SM CLR 05/M04 A3018 RMK A01
Observed
Nov-17 @ 16:35 UTC
Wind
  • 130° at 9 KTS
Visibility
10 SM
Flight Rules
VFR
Cloud Levels
  • Clear skies
Temperature
C / 41°F
Dewpoint
-4°C / 25°F
Humidity
53%
Altimeter
30.18" Hg
Pressure
1022.02 hPa
Previous

50 mins ago

KIDI 171615Z AUTO 13011KT 10SM CLR 04/M04 A3019 RMK A01
Observed
Nov-17 @ 16:15 UTC
Wind
  • 130° at 11 KTS
Visibility
10 SM
Flight Rules
VFR
Cloud Levels
  • Clear skies
Temperature
C / 39°F
Dewpoint
-4°C / 25°F
Humidity
56%
Altimeter
30.19" Hg
Pressure
1022.32 hPa